MSC Gina — 3FLY9 — position and weather

sailwx.info

Track history (hours):
 
Tides and Currents Weather Stations Pressure Air Temp Water Temp Dewpoint Dewpoint Depression Visibility Wind Speed Wind Dir Waves Ship Positions

MSC Gina

Last reported at 2017-Mar-21 13:16 UTC. Time now 2017-Mar-28 13:55 UTC.
Position N 38°02' W 009°50'.

Length 259 m; draft 10.3 m.

Type: Ship (hazmat cat A). MMSI: 357542000.

Date/timePositionNaut miles runAvg speedWind from/ knotsBaromVisibWave heightAir tempDewpointWater temp
2017-Mar-21 13:16N 38°02' W 009°50'1419.7
2017-Mar-21 12:33N 37°59' W 009°32'1919.4
2017-Mar-21 11:33N 37°56' W 009°08'1313.1
2017-Mar-21 10:32N 37°56' W 008°51'0 0.1
2017-Mar-21 09:32N 37°56' W 008°51'0 0.0
2017-Mar-21 08:32N 37°56' W 008°51'0 0.0
2017-Mar-21 07:32N 37°56' W 008°51'0 0.0
2017-Mar-21 06:32N 37°56' W 008°51'0 0.0
2017-Mar-21 05:32N 37°56' W 008°51'0 0.0
2017-Mar-21 04:32N 37°56' W 008°51'0 0.0
2017-Mar-21 03:32N 37°56' W 008°51'0 0.0
2017-Mar-21 02:32N 37°56' W 008°51'0 0.0
2017-Mar-21 01:32N 37°56' W 008°51'0 0.0
2017-Mar-21 00:32N 37°56' W 008°51'0 0.0
2017-Mar-20 23:32N 37°56' W 008°51'0 0.0
2017-Mar-20 22:32N 37°56' W 008°51'0 0.0
2017-Mar-20 21:32N 37°56' W 008°51'0 0.0
2017-Mar-20 20:32N 37°56' W 008°51'0 0.0
2017-Mar-20 19:32N 37°56' W 008°51'0 0.0
2017-Mar-20 18:32N 37°56' W 008°51'0 0.0
2017-Mar-20 17:32N 37°56' W 008°51'0 0.0
2017-Mar-20 16:32N 37°56' W 008°51'0 0.0
2017-Mar-20 15:32N 37°56' W 008°51'0 0.0
2017-Mar-20 14:32N 37°56' W 008°51'0 0.0
2017-Mar-20 13:32N 37°56' W 008°51'0 0.0
2017-Mar-20 12:32N 37°56' W 008°51'0 0.0
2017-Mar-20 11:32N 37°56' W 008°51'0 0.0
2017-Mar-20 10:29N 37°56' W 008°51'0 0.0
2017-Mar-20 09:32N 37°56' W 008°51'0 0.0
2017-Mar-20 08:33N 37°56' W 008°51'0 0.0
2017-Mar-20 07:33N 37°56' W 008°51'0 0.0
2017-Mar-20 06:33N 37°56' W 008°51'0 0.0
2017-Mar-20 05:33N 37°56' W 008°51'0 0.0
2017-Mar-20 04:33N 37°56' W 008°51'0 0.0
2017-Mar-20 03:33N 37°56' W 008°51'0 0.0
2017-Mar-20 02:33N 37°56' W 008°51'0 0.0
2017-Mar-20 01:33N 37°56' W 008°51'0 0.0
2017-Mar-20 00:33N 37°56' W 008°51'0 0.0
2017-Mar-19 23:33N 37°56' W 008°51'0 0.0
2017-Mar-19 22:33N 37°56' W 008°51'0 0.0
2017-Mar-19 21:33N 37°56' W 008°51'3 3.2
2017-Mar-19 20:33N 37°53' W 008°50'3 2.6
2017-Mar-19 19:33N 37°51' W 008°52'5 5.0
2017-Mar-19 18:33N 37°47' W 008°57'1 0.6
2017-Mar-19 17:33N 37°47' W 008°58'9 9.5
2017-Mar-19 16:33N 37°38' W 008°60'1212.0
2017-Mar-19 15:34N 37°27' W 009°06'1413.8
2017-Mar-19 14:33N 37°15' W 009°14'1414.0
2017-Mar-19 13:33N 37°02' W 009°20'1312.8
2017-Mar-19 12:33N 36°49' W 009°15'1313.4
2017-Mar-19 11:33N 36°42' W 009°01'1413.7
2017-Mar-19 10:34N 36°38' W 008°45'12715.8
2017-Mar-19 02:31N 35°59' W 006°15'1815.7
2017-Mar-19 01:21N 35°58' W 005°52'1215.7
2017-Mar-19 00:33N 35°58' W 005°37'1515.1
2017-Mar-18 23:33N 36°01' W 005°19'1515.1
2017-Mar-18 22:33N 36°05' W 005°01'19715.0
2017-Mar-18 09:26N 37°10' W 001°09'1516.6
2017-Mar-18 08:33N 37°20' W 000°55'1817.7
2017-Mar-18 07:32N 37°32' W 000°38'3517.6
2017-Mar-18 05:33N 37°60' W 000°12'2317.7
2017-Mar-18 04:17N 38°19' E 000°03'5814.7
2017-Mar-18 00:20N 39°16' W 000°09'1215.7
2017-Mar-17 23:33N 39°26' W 000°18'1 0.7
2017-Mar-17 22:32N 39°26' W 000°19'0 0.0
2017-Mar-17 21:32N 39°26' W 000°19'0 0.0
2017-Mar-17 20:32N 39°26' W 000°19'0 0.0
2017-Mar-17 19:32N 39°26' W 000°19'0 0.0
2017-Mar-17 18:32N 39°26' W 000°19'0 0.0
2017-Mar-17 17:32N 39°26' W 000°19'0 0.0
2017-Mar-17 16:32N 39°26' W 000°19'0 0.0
2017-Mar-17 15:32N 39°26' W 000°19'0 0.0
2017-Mar-17 14:26N 39°26' W 000°19'0 0.0
2017-Mar-17 13:32N 39°26' W 000°19'0 0.0
2017-Mar-17 12:32N 39°26' W 000°19'0 0.0
2017-Mar-17 11:23N 39°26' W 000°19'0 0.0
2017-Mar-17 10:29N 39°26' W 000°19'0 0.0
2017-Mar-17 09:29N 39°26' W 000°19'0 0.0
2017-Mar-17 08:32N 39°26' W 000°19'0 0.0
2017-Mar-17 07:32N 39°26' W 000°19'0 0.0
2017-Mar-17 06:32N 39°26' W 000°19'0 0.0
2017-Mar-17 05:32N 39°26' W 000°19'0 0.0
2017-Mar-17 04:32N 39°26' W 000°19'0 0.0
2017-Mar-17 03:29N 39°26' W 000°19'0 0.0
2017-Mar-17 02:32N 39°26' W 000°19'0 0.0
2017-Mar-17 01:32N 39°26' W 000°19'0 0.0
2017-Mar-17 00:32N 39°26' W 000°19'0 0.0
2017-Mar-16 23:32N 39°26' W 000°19'0 0.0
2017-Mar-16 22:32N 39°26' W 000°19'0 0.0
2017-Mar-16 21:33N 39°26' W 000°19'0 0.0
2017-Mar-16 20:33N 39°26' W 000°19'0 0.0
2017-Mar-16 19:33N 39°26' W 000°19'0 0.0
2017-Mar-16 18:33N 39°26' W 000°19'5 5.4
2017-Mar-16 17:33N 39°24' W 000°13'4 3.6
2017-Mar-16 16:22N 39°22' W 000°08'106 9.8
2017-Mar-16 05:33N 37°37' W 000°27'1716.3
2017-Mar-16 04:29N 37°25' W 000°43'1616.3
2017-Mar-16 03:29N 37°14' W 000°58'20411.9
2017-Mar-15 10:24N 36°01' W 004°55'910.4
2017-Mar-15 09:33N 36°01' W 005°06'1111.1
2017-Mar-15 08:33N 35°59' W 005°19'1716.6
2017-Mar-15 07:33N 35°55' W 005°39'2020.4
2017-Mar-15 06:33N 35°53' W 006°04'22417.0
2017-Mar-14 17:23N 37°59' W 009°57'39018.5
2017-Mar-13 20:17N 38°43' W 018°11'1619.5
2017-Mar-13 19:30N 38°45' W 018°31'1819.6
2017-Mar-13 18:33N 38°47' W 018°55'1919.4
2017-Mar-13 17:33N 38°49' W 019°19'1919.4
2017-Mar-13 16:33N 38°51' W 019°44'1919.5
2017-Mar-13 15:33N 38°53' W 020°09'2019.5
2017-Mar-13 14:33N 38°55' W 020°34'1919.6
2017-Mar-13 13:33N 38°57' W 020°59'2019.8
2017-Mar-13 12:33N 38°59' W 021°24'2019.8
2017-Mar-13 11:33N 39°01' W 021°50'1919.3
2017-Mar-13 10:33N 39°03' W 022°14'1818.3
2017-Mar-13 09:34N 39°05' W 022°38'1717.4
2017-Mar-13 08:33N 39°07' W 023°00'1615.6
2017-Mar-13 07:33N 39°09' W 023°20'1313.3
2017-Mar-13 06:33N 39°10' W 023°37'1110.7
2017-Mar-13 05:33N 39°11' W 023°51'2 2.0
2017-Mar-13 04:23N 39°11' W 023°54'1 0.7
2017-Mar-13 03:29N 39°12' W 023°53'1 0.8
2017-Mar-13 02:29N 39°12' W 023°52'1 0.7
2017-Mar-13 01:32N 39°12' W 023°51'1 0.6
2017-Mar-13 00:23N 39°12' W 023°50'1 0.6
2017-Mar-12 23:32N 39°12' W 023°50'1 0.6
2017-Mar-12 22:29N 39°12' W 023°49'1 0.7
2017-Mar-12 21:32N 39°12' W 023°48'1 0.6
2017-Mar-12 20:32N 39°12' W 023°47'0 0.5
2017-Mar-12 19:32N 39°12' W 023°47'1 0.5
2017-Mar-12 18:32N 39°12' W 023°46'0 0.3
2017-Mar-12 17:17N 39°12' W 023°46'1 1.9
2017-Mar-12 16:33N 39°12' W 023°47'1918.7
2017-Mar-12 15:34N 39°15' W 024°11'1919.3
2017-Mar-12 14:33N 39°17' W 024°36'1919.3
2017-Mar-12 13:33N 39°19' W 025°01'2019.5
2017-Mar-12 12:33N 39°21' W 025°26'2019.5
2017-Mar-12 11:32N 39°23' W 025°52'1919.7
2017-Mar-12 10:33N 39°26' W 026°16'2019.9
2017-Mar-12 09:33N 39°28' W 026°42'2019.6
2017-Mar-12 08:33N 39°30' W 027°07'2019.8
2017-Mar-12 07:33N 39°33' W 027°33'2019.7
2017-Mar-12 06:34N 39°35' W 027°58'1919.4
2017-Mar-12 05:33N 39°37' W 028°23'2019.7
2017-Mar-12 04:33N 39°39' W 028°49'1919.5
2017-Mar-12 03:34N 39°41' W 029°14'1919.4
2017-Mar-12 02:33N 39°43' W 029°39'1919.5
2017-Mar-12 01:33N 39°45' W 030°04'2019.5
2017-Mar-12 00:33N 39°48' W 030°29'2019.6
2017-Mar-11 23:33N 39°50' W 030°54'2519.6
2017-Mar-11 22:16N 39°53' W 031°27'1519.3
2017-Mar-11 21:30N 39°54' W 031°47'1819.3
2017-Mar-11 20:34N 39°56' W 032°10'  
Track history (hours):
 
Tides and Currents Weather Stations Pressure Air Temp Water Temp Dewpoint Dewpoint Depression Visibility Wind Speed Wind Dir Waves Ship Positions

MSC Gina

Last reported at 2017-Mar-21 13:16 UTC. Time now 2017-Mar-28 13:55 UTC.
Position N 38°02' W 009°50'.

Length 259 m; draft 10.3 m.

Type: Ship (hazmat cat A). MMSI: 357542000.

Date/timePositionNaut miles runAvg speedWind from/ knotsBaromVisibWave heightAir tempDewpointWater temp
2017-Mar-21 13:16N 38°02' W 009°50'1419.7
2017-Mar-21 12:33N 37°59' W 009°32'1919.4
2017-Mar-21 11:33N 37°56' W 009°08'1313.1
2017-Mar-21 10:32N 37°56' W 008°51'0 0.1
2017-Mar-21 09:32N 37°56' W 008°51'0 0.0
2017-Mar-21 08:32N 37°56' W 008°51'0 0.0
2017-Mar-21 07:32N 37°56' W 008°51'0 0.0
2017-Mar-21 06:32N 37°56' W 008°51'0 0.0
2017-Mar-21 05:32N 37°56' W 008°51'0 0.0
2017-Mar-21 04:32N 37°56' W 008°51'0 0.0
2017-Mar-21 03:32N 37°56' W 008°51'0 0.0
2017-Mar-21 02:32N 37°56' W 008°51'0 0.0
2017-Mar-21 01:32N 37°56' W 008°51'0 0.0
2017-Mar-21 00:32N 37°56' W 008°51'0 0.0
2017-Mar-20 23:32N 37°56' W 008°51'0 0.0
2017-Mar-20 22:32N 37°56' W 008°51'0 0.0
2017-Mar-20 21:32N 37°56' W 008°51'0 0.0
2017-Mar-20 20:32N 37°56' W 008°51'0 0.0
2017-Mar-20 19:32N 37°56' W 008°51'0 0.0
2017-Mar-20 18:32N 37°56' W 008°51'0 0.0
2017-Mar-20 17:32N 37°56' W 008°51'0 0.0
2017-Mar-20 16:32N 37°56' W 008°51'0 0.0
2017-Mar-20 15:32N 37°56' W 008°51'0 0.0
2017-Mar-20 14:32N 37°56' W 008°51'0 0.0
2017-Mar-20 13:32N 37°56' W 008°51'0 0.0
2017-Mar-20 12:32N 37°56' W 008°51'0 0.0
2017-Mar-20 11:32N 37°56' W 008°51'0 0.0
2017-Mar-20 10:29N 37°56' W 008°51'0 0.0
2017-Mar-20 09:32N 37°56' W 008°51'0 0.0
2017-Mar-20 08:33N 37°56' W 008°51'0 0.0
2017-Mar-20 07:33N 37°56' W 008°51'0 0.0
2017-Mar-20 06:33N 37°56' W 008°51'0 0.0
2017-Mar-20 05:33N 37°56' W 008°51'0 0.0
2017-Mar-20 04:33N 37°56' W 008°51'0 0.0
2017-Mar-20 03:33N 37°56' W 008°51'0 0.0
2017-Mar-20 02:33N 37°56' W 008°51'0 0.0
2017-Mar-20 01:33N 37°56' W 008°51'0 0.0
2017-Mar-20 00:33N 37°56' W 008°51'0 0.0
2017-Mar-19 23:33N 37°56' W 008°51'0 0.0
2017-Mar-19 22:33N 37°56' W 008°51'0 0.0
2017-Mar-19 21:33N 37°56' W 008°51'3 3.2
2017-Mar-19 20:33N 37°53' W 008°50'3 2.6
2017-Mar-19 19:33N 37°51' W 008°52'5 5.0
2017-Mar-19 18:33N 37°47' W 008°57'1 0.6
2017-Mar-19 17:33N 37°47' W 008°58'9 9.5
2017-Mar-19 16:33N 37°38' W 008°60'1212.0
2017-Mar-19 15:34N 37°27' W 009°06'1413.8
2017-Mar-19 14:33N 37°15' W 009°14'1414.0
2017-Mar-19 13:33N 37°02' W 009°20'1312.8
2017-Mar-19 12:33N 36°49' W 009°15'1313.4
2017-Mar-19 11:33N 36°42' W 009°01'1413.7
2017-Mar-19 10:34N 36°38' W 008°45'12715.8
2017-Mar-19 02:31N 35°59' W 006°15'1815.7
2017-Mar-19 01:21N 35°58' W 005°52'1215.7
2017-Mar-19 00:33N 35°58' W 005°37'1515.1
2017-Mar-18 23:33N 36°01' W 005°19'1515.1
2017-Mar-18 22:33N 36°05' W 005°01'19715.0
2017-Mar-18 09:26N 37°10' W 001°09'1516.6
2017-Mar-18 08:33N 37°20' W 000°55'1817.7
2017-Mar-18 07:32N 37°32' W 000°38'3517.6
2017-Mar-18 05:33N 37°60' W 000°12'2317.7
2017-Mar-18 04:17N 38°19' E 000°03'5814.7
2017-Mar-18 00:20N 39°16' W 000°09'1215.7
2017-Mar-17 23:33N 39°26' W 000°18'1 0.7
2017-Mar-17 22:32N 39°26' W 000°19'0 0.0
2017-Mar-17 21:32N 39°26' W 000°19'0 0.0
2017-Mar-17 20:32N 39°26' W 000°19'0 0.0
2017-Mar-17 19:32N 39°26' W 000°19'0 0.0
2017-Mar-17 18:32N 39°26' W 000°19'0 0.0
2017-Mar-17 17:32N 39°26' W 000°19'0 0.0
2017-Mar-17 16:32N 39°26' W 000°19'0 0.0
2017-Mar-17 15:32N 39°26' W 000°19'0 0.0
2017-Mar-17 14:26N 39°26' W 000°19'0 0.0
2017-Mar-17 13:32N 39°26' W 000°19'0 0.0
2017-Mar-17 12:32N 39°26' W 000°19'0 0.0
2017-Mar-17 11:23N 39°26' W 000°19'0 0.0
2017-Mar-17 10:29N 39°26' W 000°19'0 0.0
2017-Mar-17 09:29N 39°26' W 000°19'0 0.0
2017-Mar-17 08:32N 39°26' W 000°19'0 0.0
2017-Mar-17 07:32N 39°26' W 000°19'0 0.0
2017-Mar-17 06:32N 39°26' W 000°19'0 0.0
2017-Mar-17 05:32N 39°26' W 000°19'0 0.0
2017-Mar-17 04:32N 39°26' W 000°19'0 0.0
2017-Mar-17 03:29N 39°26' W 000°19'0 0.0
2017-Mar-17 02:32N 39°26' W 000°19'0 0.0
2017-Mar-17 01:32N 39°26' W 000°19'0 0.0
2017-Mar-17 00:32N 39°26' W 000°19'0 0.0
2017-Mar-16 23:32N 39°26' W 000°19'0 0.0
2017-Mar-16 22:32N 39°26' W 000°19'0 0.0
2017-Mar-16 21:33N 39°26' W 000°19'0 0.0
2017-Mar-16 20:33N 39°26' W 000°19'0 0.0
2017-Mar-16 19:33N 39°26' W 000°19'0 0.0
2017-Mar-16 18:33N 39°26' W 000°19'5 5.4
2017-Mar-16 17:33N 39°24' W 000°13'4 3.6
2017-Mar-16 16:22N 39°22' W 000°08'106 9.8
2017-Mar-16 05:33N 37°37' W 000°27'1716.3
2017-Mar-16 04:29N 37°25' W 000°43'1616.3
2017-Mar-16 03:29N 37°14' W 000°58'20411.9
2017-Mar-15 10:24N 36°01' W 004°55'910.4
2017-Mar-15 09:33N 36°01' W 005°06'1111.1
2017-Mar-15 08:33N 35°59' W 005°19'1716.6
2017-Mar-15 07:33N 35°55' W 005°39'2020.4
2017-Mar-15 06:33N 35°53' W 006°04'22417.0
2017-Mar-14 17:23N 37°59' W 009°57'39018.5
2017-Mar-13 20:17N 38°43' W 018°11'1619.5
2017-Mar-13 19:30N 38°45' W 018°31'1819.6
2017-Mar-13 18:33N 38°47' W 018°55'1919.4
2017-Mar-13 17:33N 38°49' W 019°19'1919.4
2017-Mar-13 16:33N 38°51' W 019°44'1919.5
2017-Mar-13 15:33N 38°53' W 020°09'2019.5
2017-Mar-13 14:33N 38°55' W 020°34'1919.6
2017-Mar-13 13:33N 38°57' W 020°59'2019.8
2017-Mar-13 12:33N 38°59' W 021°24'2019.8
2017-Mar-13 11:33N 39°01' W 021°50'1919.3
2017-Mar-13 10:33N 39°03' W 022°14'1818.3
2017-Mar-13 09:34N 39°05' W 022°38'1717.4
2017-Mar-13 08:33N 39°07' W 023°00'1615.6
2017-Mar-13 07:33N 39°09' W 023°20'1313.3
2017-Mar-13 06:33N 39°10' W 023°37'1110.7
2017-Mar-13 05:33N 39°11' W 023°51'2 2.0
2017-Mar-13 04:23N 39°11' W 023°54'1 0.7
2017-Mar-13 03:29N 39°12' W 023°53'1 0.8
2017-Mar-13 02:29N 39°12' W 023°52'1 0.7
2017-Mar-13 01:32N 39°12' W 023°51'1 0.6
2017-Mar-13 00:23N 39°12' W 023°50'1 0.6
2017-Mar-12 23:32N 39°12' W 023°50'1 0.6
2017-Mar-12 22:29N 39°12' W 023°49'1 0.7
2017-Mar-12 21:32N 39°12' W 023°48'1 0.6
2017-Mar-12 20:32N 39°12' W 023°47'0 0.5
2017-Mar-12 19:32N 39°12' W 023°47'1 0.5
2017-Mar-12 18:32N 39°12' W 023°46'0 0.3
2017-Mar-12 17:17N 39°12' W 023°46'1 1.9
2017-Mar-12 16:33N 39°12' W 023°47'1918.7
2017-Mar-12 15:34N 39°15' W 024°11'1919.3
2017-Mar-12 14:33N 39°17' W 024°36'1919.3
2017-Mar-12 13:33N 39°19' W 025°01'2019.5
2017-Mar-12 12:33N 39°21' W 025°26'2019.5
2017-Mar-12 11:32N 39°23' W 025°52'1919.7
2017-Mar-12 10:33N 39°26' W 026°16'2019.9
2017-Mar-12 09:33N 39°28' W 026°42'2019.6
2017-Mar-12 08:33N 39°30' W 027°07'2019.8
2017-Mar-12 07:33N 39°33' W 027°33'2019.7
2017-Mar-12 06:34N 39°35' W 027°58'1919.4
2017-Mar-12 05:33N 39°37' W 028°23'2019.7
2017-Mar-12 04:33N 39°39' W 028°49'1919.5
2017-Mar-12 03:34N 39°41' W 029°14'1919.4
2017-Mar-12 02:33N 39°43' W 029°39'1919.5
2017-Mar-12 01:33N 39°45' W 030°04'2019.5
2017-Mar-12 00:33N 39°48' W 030°29'2019.6
2017-Mar-11 23:33N 39°50' W 030°54'2519.6
2017-Mar-11 22:16N 39°53' W 031°27'1519.3
2017-Mar-11 21:30N 39°54' W 031°47'1819.3
2017-Mar-11 20:34N 39°56' W 032°10'  

Dump ship's entire track history